createdAt,value
2019-05-15T00:02:30.072Z,47.61
2019-05-15T00:05:01.259Z,47.66
2019-05-15T00:07:32.420Z,47.85
2019-05-15T00:10:03.519Z,48.11
2019-05-15T00:12:34.692Z,48.57
2019-05-15T00:15:06.158Z,48.57
2019-05-15T00:17:39.286Z,48.58
2019-05-15T00:20:10.802Z,48.94
2019-05-15T00:22:41.848Z,48.95
2019-05-15T00:25:13.131Z,49.14
2019-05-15T00:27:44.252Z,48.97
2019-05-15T00:30:15.568Z,49.15
2019-05-15T00:32:48.684Z,49.20
2019-05-15T00:35:19.429Z,49.30
2019-05-15T00:37:50.570Z,49.40
2019-05-15T00:40:22.050Z,49.56
2019-05-15T00:42:53.080Z,49.47
2019-05-15T00:45:25.044Z,49.57
2019-05-15T00:47:57.913Z,49.54
2019-05-15T00:50:28.992Z,49.61
2019-05-15T00:53:00.131Z,49.59
2019-05-15T00:55:32.106Z,49.92
2019-05-15T00:58:03.107Z,49.90
2019-05-15T01:00:43.286Z,49.72
2019-05-15T01:03:14.662Z,49.61
2019-05-15T01:05:47.860Z,49.63
2019-05-15T01:08:19.174Z,49.81
2019-05-15T01:10:50.748Z,49.77
2019-05-15T01:13:21.758Z,49.34
2019-05-15T01:15:52.849Z,49.01
2019-05-15T01:18:25.102Z,49.05
2019-05-15T01:20:58.673Z,48.90
2019-05-15T01:23:29.626Z,48.97
2019-05-15T01:26:01.883Z,48.63
2019-05-15T01:28:32.896Z,49.02
2019-05-15T01:31:03.977Z,49.29
2019-05-15T01:33:35.057Z,49.18
2019-05-15T01:36:08.345Z,49.71
2019-05-15T01:38:39.128Z,49.68
2019-05-15T01:41:10.199Z,50.08
2019-05-15T01:43:41.245Z,50.11
2019-05-15T01:46:12.316Z,50.23
2019-05-15T01:48:43.313Z,50.36
2019-05-15T01:51:14.353Z,50.20
2019-05-15T01:53:47.828Z,50.20
2019-05-15T01:56:18.962Z,50.24
2019-05-15T01:58:50.054Z,50.19
2019-05-15T02:01:21.069Z,50.28
2019-05-15T02:03:52.138Z,50.05
2019-05-15T02:06:23.217Z,50.31
2019-05-15T02:08:54.226Z,50.24
2019-05-15T02:11:25.293Z,50.40
2019-05-15T02:13:58.637Z,50.44
2019-05-15T02:16:29.713Z,50.30
2019-05-15T02:19:00.735Z,50.36
2019-05-15T02:21:31.748Z,50.44
2019-05-15T02:24:04.049Z,50.24
2019-05-15T02:26:35.036Z,50.55
2019-05-15T02:29:07.831Z,50.92
2019-05-15T02:31:39.309Z,51.87
2019-05-15T02:34:10.591Z,52.15
2019-05-15T02:36:41.598Z,52.36
2019-05-15T02:39:12.587Z,52.68
2019-05-15T02:41:43.565Z,53.13
2019-05-15T02:44:14.633Z,53.36
2019-05-15T02:46:45.609Z,53.13
2019-05-15T02:49:19.210Z,52.63
2019-05-15T02:51:49.560Z,52.29
2019-05-15T02:54:20.561Z,52.71
2019-05-15T02:56:51.535Z,53.11
2019-05-15T02:59:22.629Z,53.70
2019-05-15T03:01:53.674Z,53.63
2019-05-15T03:04:25.371Z,53.77
2019-05-15T03:07:00.168Z,54.02
2019-05-15T03:09:29.992Z,53.90
2019-05-15T03:12:01.352Z,53.95
2019-05-15T03:14:32.418Z,53.93
2019-05-15T03:17:03.612Z,54.30
2019-05-15T03:19:34.801Z,53.76
2019-05-15T03:22:09.467Z,53.95
2019-05-15T03:24:39.678Z,53.96
2019-05-15T03:27:10.828Z,54.21
2019-05-15T03:29:41.984Z,54.42
2019-05-15T03:32:25.301Z,54.63
2019-05-15T03:34:48.008Z,54.35
2019-05-15T03:37:22.246Z,54.60
2019-05-15T03:39:52.037Z,54.70
2019-05-15T03:42:23.283Z,54.74
2019-05-15T03:44:54.358Z,54.56
2019-05-15T03:47:25.413Z,54.48
2019-05-15T03:49:59.891Z,54.65
2019-05-15T03:52:29.996Z,55.59
2019-05-15T03:55:01.030Z,56.17
2019-05-15T03:57:32.156Z,56.33
2019-05-15T04:00:03.236Z,56.47
2019-05-15T04:02:34.281Z,56.22
2019-05-15T04:05:06.141Z,56.34
2019-05-15T04:07:39.734Z,56.21
2019-05-15T04:10:11.743Z,56.10
2019-05-15T04:12:42.792Z,55.83
2019-05-15T04:15:14.155Z,55.99
2019-05-15T04:17:45.136Z,56.09
2019-05-15T04:20:20.058Z,55.96
2019-05-15T04:22:50.123Z,55.96
2019-05-15T04:25:21.204Z,55.57
2019-05-15T04:27:53.005Z,55.09
2019-05-15T04:30:25.398Z,55.26
2019-05-15T04:32:59.489Z,55.62
2019-05-15T04:35:30.221Z,55.68
2019-05-15T04:38:01.202Z,55.80
2019-05-15T04:40:32.225Z,56.18
2019-05-15T04:43:03.304Z,56.17
2019-05-15T04:45:35.457Z,56.36
2019-05-15T04:48:10.179Z,56.39
2019-05-15T04:50:40.316Z,56.69
2019-05-15T04:53:12.428Z,56.57
2019-05-15T04:55:43.421Z,56.34
2019-05-15T04:58:14.473Z,56.35
2019-05-15T05:00:50.624Z,56.57
2019-05-15T05:03:21.938Z,56.63
2019-05-15T05:05:53.004Z,56.93
2019-05-15T05:08:24.242Z,57.24
2019-05-15T05:10:58.853Z,57.38
2019-05-15T05:13:28.907Z,56.82
2019-05-15T05:15:59.996Z,57.05
2019-05-15T05:18:31.576Z,57.10
2019-05-15T05:21:02.754Z,56.76
2019-05-15T05:23:33.831Z,56.95
2019-05-15T05:26:08.816Z,56.56
2019-05-15T05:28:38.688Z,56.13
2019-05-15T05:31:09.703Z,56.01
2019-05-15T05:33:40.799Z,55.74
2019-05-15T05:36:11.813Z,55.77
2019-05-15T05:38:42.889Z,55.75
2019-05-15T05:41:14.094Z,55.51
2019-05-15T05:43:45.404Z,55.46
2019-05-15T05:46:18.418Z,55.49
2019-05-15T05:48:49.163Z,55.67
2019-05-15T05:51:20.428Z,55.36
2019-05-15T05:53:51.421Z,55.75
2019-05-15T05:56:22.594Z,55.21
2019-05-15T05:58:53.596Z,53.78
2019-05-15T06:01:28.038Z,54.02
2019-05-15T06:03:58.476Z,52.92
2019-05-15T06:06:29.455Z,52.73
2019-05-15T06:09:00.421Z,52.21
2019-05-15T06:11:33.037Z,52.17
2019-05-15T06:14:04.441Z,52.28
2019-05-15T06:16:35.561Z,52.11
2019-05-15T06:19:08.289Z,51.78
2019-05-15T06:21:53.800Z,51.11
2019-05-15T06:24:13.298Z,48.57
2019-05-15T06:26:44.395Z,48.96
2019-05-15T06:29:17.737Z,50.08
2019-05-15T06:31:48.542Z,49.33
2019-05-15T06:34:19.680Z,49.93
2019-05-15T06:36:50.695Z,50.26
2019-05-15T06:39:21.708Z,49.60
2019-05-15T06:41:52.978Z,48.95
2019-05-15T06:44:24.066Z,48.25
2019-05-15T06:46:55.111Z,48.17
2019-05-15T06:49:28.477Z,48.49
2019-05-15T06:51:58.894Z,48.80
2019-05-15T06:54:29.992Z,49.44
2019-05-15T06:57:01.309Z,49.04
2019-05-15T06:59:32.458Z,49.10
2019-05-15T07:02:03.501Z,48.42
2019-05-15T07:04:34.563Z,48.48
2019-05-15T07:07:08.907Z,48.53
2019-05-15T07:09:38.635Z,48.75
2019-05-15T07:12:11.451Z,48.75
2019-05-15T07:14:42.582Z,48.81
2019-05-15T07:17:13.659Z,48.52
2019-05-15T07:19:44.746Z,47.94
2019-05-15T07:22:18.112Z,48.08
2019-05-15T07:24:48.498Z,48.91
2019-05-15T07:27:19.514Z,48.42
2019-05-15T07:29:50.500Z,46.89
2019-05-15T07:32:21.589Z,46.90
2019-05-15T07:34:53.549Z,46.89
2019-05-15T07:37:25.797Z,46.68
2019-05-15T07:39:59.101Z,46.07
2019-05-15T07:42:30.256Z,46.86
2019-05-15T07:45:01.244Z,46.53
2019-05-15T07:47:32.252Z,45.75
2019-05-15T07:50:03.447Z,44.90
2019-05-15T07:52:34.478Z,44.72
2019-05-15T07:55:08.584Z,45.39
2019-05-15T07:57:39.679Z,45.81
2019-05-15T08:00:11.808Z,44.97
2019-05-15T08:02:42.916Z,44.61
2019-05-15T08:05:14.821Z,45.11
2019-05-15T08:07:46.115Z,45.05
2019-05-15T08:10:18.357Z,44.45
2019-05-15T08:12:49.703Z,44.50
2019-05-15T08:15:21.471Z,44.32
2019-05-15T08:18:07.627Z,43.54
2019-05-15T08:20:28.820Z,43.19
2019-05-15T08:22:59.227Z,44.53
2019-05-15T08:25:35.115Z,41.67
2019-05-15T08:28:04.008Z,42.06
2019-05-15T08:30:35.104Z,42.16
2019-05-15T08:33:08.406Z,42.02
2019-05-15T08:35:44.458Z,42.51
2019-05-15T08:38:14.295Z,40.82
2019-05-15T08:40:45.464Z,41.44
2019-05-15T08:43:18.324Z,40.18
2019-05-15T08:45:50.054Z,41.76
2019-05-15T08:48:21.146Z,41.19
2019-05-15T08:50:52.263Z,40.81
2019-05-15T08:53:23.348Z,40.42
2019-05-15T08:55:54.364Z,41.59
2019-05-15T08:58:25.365Z,41.92
2019-05-15T09:00:58.642Z,41.41
2019-05-15T09:03:29.547Z,39.77
2019-05-15T09:06:00.537Z,40.26
2019-05-15T09:08:31.687Z,39.88
2019-05-15T09:11:03.194Z,38.73
2019-05-15T09:13:34.313Z,39.02
2019-05-15T09:16:08.134Z,38.53
2019-05-15T09:18:39.179Z,38.43
2019-05-15T09:21:10.622Z,38.66
2019-05-15T09:23:41.632Z,38.56
2019-05-15T09:26:12.680Z,39.23
2019-05-15T09:28:44.099Z,38.57
2019-05-15T09:31:15.422Z,38.13
2019-05-15T09:33:49.010Z,38.62
2019-05-15T09:36:20.184Z,38.22
2019-05-15T09:38:51.961Z,37.08
2019-05-15T09:41:23.954Z,37.40
2019-05-15T09:43:55.072Z,38.02
2019-05-15T09:46:26.208Z,38.41
2019-05-15T09:48:59.453Z,38.46
2019-05-15T09:51:31.506Z,38.21
2019-05-15T09:54:02.779Z,37.18
2019-05-15T09:56:33.775Z,38.21
2019-05-15T09:59:04.843Z,37.14
2019-05-15T10:01:35.969Z,37.86
2019-05-15T10:04:08.356Z,38.11
2019-05-15T10:06:39.651Z,37.34
2019-05-15T10:09:10.817Z,36.51
2019-05-15T10:11:41.900Z,37.04
2019-05-15T10:14:13.240Z,36.07
2019-05-15T10:16:44.403Z,36.26
2019-05-15T10:19:18.343Z,37.13
2019-05-15T10:21:53.027Z,37.93
2019-05-15T10:24:21.087Z,37.26
2019-05-15T10:26:53.220Z,36.92
2019-05-15T10:29:24.256Z,36.54
2019-05-15T10:31:55.261Z,34.90
2019-05-15T10:34:28.894Z,35.16
2019-05-15T10:37:00.049Z,34.62
2019-05-15T10:39:31.048Z,35.50
2019-05-15T10:42:02.065Z,35.40
2019-05-15T10:44:33.167Z,34.89
2019-05-15T10:47:04.169Z,36.81
2019-05-15T10:49:36.214Z,36.36
2019-05-15T10:52:08.697Z,35.72
2019-05-15T10:54:40.170Z,35.55
2019-05-15T10:57:11.272Z,36.48
2019-05-15T10:59:42.303Z,36.36
2019-05-15T11:02:13.558Z,36.57
2019-05-15T11:04:44.659Z,35.74
2019-05-15T11:07:15.813Z,36.86
2019-05-15T11:09:48.954Z,36.17
2019-05-15T11:12:20.011Z,34.87
2019-05-15T11:14:51.001Z,36.31
2019-05-15T11:17:22.217Z,35.80
2019-05-15T11:19:53.209Z,36.48
2019-05-15T11:22:24.224Z,36.12
2019-05-15T11:24:55.215Z,35.26
2019-05-15T11:27:31.305Z,34.68
2019-05-15T11:30:01.233Z,34.33
2019-05-15T11:32:32.248Z,34.60
2019-05-15T11:35:04.622Z,34.88
2019-05-15T11:37:43.858Z,34.00
2019-05-15T11:40:10.344Z,33.67
2019-05-15T11:42:42.042Z,33.35
2019-05-15T11:45:15.124Z,34.36
2019-05-15T11:47:48.310Z,35.07
2019-05-15T11:50:21.010Z,35.48
2019-05-15T11:52:52.064Z,35.59
2019-05-15T11:55:23.226Z,35.74
2019-05-15T11:57:55.709Z,34.25
2019-05-15T12:00:30.189Z,34.59
2019-05-15T12:02:59.721Z,34.91
2019-05-15T12:05:31.119Z,33.86
2019-05-15T12:08:02.208Z,35.05
2019-05-15T12:10:33.199Z,34.78
2019-05-15T12:13:04.287Z,35.20
2019-05-15T12:15:35.423Z,35.31
2019-05-15T12:18:08.873Z,34.97
2019-05-15T12:20:40.278Z,33.65
2019-05-15T12:23:11.394Z,34.02
2019-05-15T12:25:42.454Z,33.46
2019-05-15T12:28:14.618Z,35.30
2019-05-15T12:30:49.185Z,34.89
2019-05-15T12:33:20.037Z,35.29
2019-05-15T12:35:51.272Z,36.18
2019-05-15T12:38:22.352Z,36.25
2019-05-15T13:01:18.434Z,34.47
2019-05-15T13:03:48.697Z,33.14
2019-05-15T13:06:20.025Z,33.63
2019-05-15T13:08:51.093Z,35.18
2019-05-15T13:11:22.572Z,34.98
2019-05-15T13:13:53.571Z,33.60
2019-05-15T13:16:24.572Z,33.90
2019-05-15T13:18:55.558Z,35.17
2019-05-15T13:21:26.784Z,35.59
2019-05-15T13:23:59.047Z,35.39
2019-05-15T13:26:30.085Z,36.15
2019-05-15T13:29:01.112Z,34.96
2019-05-15T13:31:32.090Z,33.80
2019-05-15T13:34:03.104Z,33.97
2019-05-15T13:36:34.263Z,33.58
2019-05-15T13:39:06.826Z,34.25
2019-05-15T13:41:38.618Z,33.34
2019-05-15T13:44:09.808Z,34.98
2019-05-15T13:46:40.817Z,34.49
2019-05-15T13:49:11.845Z,34.34
2019-05-15T13:51:42.872Z,35.15
2019-05-15T13:54:13.957Z,34.46
2019-05-15T13:56:44.976Z,33.98
2019-05-15T13:59:16.360Z,35.07
2019-05-15T14:01:48.660Z,34.99
2019-05-15T14:04:20.246Z,34.18
2019-05-15T14:06:51.279Z,34.23
2019-05-15T14:09:23.472Z,34.71
2019-05-15T14:11:55.163Z,34.15
2019-05-15T14:14:28.706Z,33.21
2019-05-15T14:16:59.699Z,33.66
2019-05-15T14:19:30.742Z,33.05
2019-05-15T14:22:01.994Z,32.89
2019-05-15T14:24:33.031Z,33.39
2019-05-15T14:27:04.219Z,33.80
2019-05-15T14:29:35.317Z,35.21
2019-05-15T14:32:08.171Z,34.41
2019-05-15T14:34:39.435Z,33.68
2019-05-15T14:37:10.534Z,34.88
2019-05-15T14:39:41.552Z,34.18
2019-05-15T14:42:12.563Z,33.15
2019-05-15T14:44:43.663Z,33.57
2019-05-15T14:47:14.954Z,33.65
2019-05-15T14:49:49.253Z,33.13
2019-05-15T14:52:18.865Z,33.88
2019-05-15T14:54:49.887Z,33.16
2019-05-15T14:57:20.867Z,33.49
2019-05-15T14:59:51.950Z,33.56
2019-05-15T15:02:22.961Z,33.39
2019-05-15T15:04:53.963Z,33.82
2019-05-15T15:07:24.941Z,34.29
2019-05-15T15:09:58.157Z,34.08
2019-05-15T15:12:29.333Z,34.84
2019-05-15T15:15:00.423Z,33.90
2019-05-15T15:17:31.490Z,33.97
2019-05-15T15:20:02.527Z,34.40
2019-05-15T15:22:34.572Z,34.45
2019-05-15T15:25:06.252Z,35.39
2019-05-15T15:27:38.736Z,35.66
2019-05-15T15:30:11.556Z,35.01
2019-05-15T15:32:42.553Z,35.31
2019-05-15T15:35:13.927Z,35.67
2019-05-15T15:37:44.939Z,35.73
2019-05-15T15:40:18.744Z,35.02
2019-05-15T15:42:49.016Z,35.90
2019-05-15T15:45:21.230Z,36.14
2019-05-15T15:47:52.219Z,36.01
2019-05-15T15:50:25.041Z,36.40
2019-05-15T15:52:56.081Z,34.57
2019-05-15T15:55:29.047Z,34.37
2019-05-15T15:57:59.907Z,34.70
2019-05-15T16:00:31.007Z,35.54
2019-05-15T16:03:02.178Z,34.92
2019-05-15T16:05:33.201Z,35.09
2019-05-15T16:08:04.325Z,35.74
2019-05-15T16:10:37.751Z,36.07
2019-05-15T16:13:09.212Z,36.68
2019-05-15T16:15:40.830Z,36.39
2019-05-15T16:18:12.187Z,36.81
2019-05-15T16:20:43.442Z,36.92
2019-05-15T16:23:14.515Z,37.10
2019-05-15T16:25:45.723Z,36.32
2019-05-15T16:28:18.434Z,36.01
2019-05-15T16:30:51.586Z,36.10
2019-05-15T16:33:22.414Z,36.67
2019-05-15T16:35:53.433Z,36.00
2019-05-15T16:38:24.415Z,36.36
2019-05-15T16:40:55.562Z,36.81
2019-05-15T16:43:28.609Z,37.02
2019-05-15T16:45:59.598Z,36.14
2019-05-15T16:48:30.648Z,36.11
2019-05-15T16:51:01.686Z,36.27
2019-05-15T16:53:32.779Z,36.69
2019-05-15T16:56:03.793Z,36.53
2019-05-15T16:58:34.773Z,36.56
2019-05-15T17:01:05.967Z,36.79
2019-05-15T17:03:38.039Z,36.55
2019-05-15T17:06:09.601Z,36.59
2019-05-15T17:08:40.811Z,36.26
2019-05-15T17:11:11.868Z,36.13
2019-05-15T17:13:42.891Z,37.09
2019-05-15T17:16:13.945Z,37.71
2019-05-15T17:18:45.125Z,37.25
2019-05-15T17:21:18.792Z,37.56
2019-05-15T17:23:49.137Z,37.80
2019-05-15T17:26:20.779Z,37.29
2019-05-15T17:28:51.768Z,38.64
2019-05-15T17:31:22.771Z,37.63
2019-05-15T17:33:53.948Z,37.42
2019-05-15T17:36:25.077Z,38.09
2019-05-15T17:38:57.953Z,37.96
2019-05-15T17:41:29.778Z,37.78
2019-05-15T17:44:00.783Z,38.26
2019-05-15T17:46:31.906Z,38.02
2019-05-15T17:49:08.641Z,37.74
2019-05-15T17:51:38.215Z,38.28
2019-05-15T17:54:09.002Z,39.44
2019-05-15T17:56:40.181Z,39.27
2019-05-15T17:59:11.156Z,38.38
2019-05-15T18:01:42.475Z,38.27
2019-05-15T18:04:14.139Z,38.71
2019-05-15T18:06:48.291Z,38.33
2019-05-15T18:09:20.880Z,38.09
2019-05-15T18:11:51.894Z,38.49
2019-05-15T18:14:23.023Z,38.51
2019-05-15T18:16:54.143Z,38.51
2019-05-15T18:19:25.243Z,38.57
2019-05-15T18:21:59.073Z,37.81
2019-05-15T18:24:29.840Z,37.34
2019-05-15T18:27:00.860Z,38.06
2019-05-15T18:29:32.139Z,37.67
2019-05-15T18:32:03.121Z,37.07
2019-05-15T18:34:34.272Z,37.11
2019-05-15T18:37:05.450Z,37.42
2019-05-15T18:39:38.787Z,37.78
2019-05-15T18:42:09.320Z,37.26
2019-05-15T18:44:40.512Z,37.10
2019-05-15T18:47:11.599Z,36.89
2019-05-15T18:49:44.244Z,36.36
2019-05-15T18:52:18.008Z,36.26
2019-05-15T18:54:48.211Z,36.64
2019-05-15T18:57:19.440Z,35.51
2019-05-15T18:59:50.525Z,35.00
2019-05-15T19:02:21.727Z,35.32
2019-05-15T19:04:52.768Z,35.38
2019-05-15T19:07:24.000Z,35.62
2019-05-15T19:09:55.186Z,36.13
2019-05-15T19:12:28.277Z,36.46
2019-05-15T19:14:59.274Z,36.25
2019-05-15T19:17:30.460Z,36.57
2019-05-15T19:20:01.652Z,36.92
2019-05-15T19:22:33.743Z,36.96
2019-05-15T19:25:05.070Z,36.73
2019-05-15T19:27:38.748Z,36.66
2019-05-15T19:30:09.578Z,36.21
2019-05-15T19:32:40.662Z,36.40
2019-05-15T19:35:12.446Z,36.29
2019-05-15T19:37:43.689Z,36.36
2019-05-15T19:40:15.023Z,36.32
2019-05-15T19:42:48.649Z,36.72
2019-05-15T19:45:19.493Z,36.71
2019-05-15T19:47:50.544Z,36.95
2019-05-15T19:50:21.732Z,37.41
2019-05-15T19:52:52.848Z,37.26
2019-05-15T19:55:23.904Z,37.45
2019-05-15T19:57:55.116Z,37.00
2019-05-15T20:00:28.450Z,37.06
2019-05-15T20:02:59.616Z,36.69
2019-05-15T20:05:31.044Z,37.09
2019-05-15T20:08:02.158Z,37.14
2019-05-15T20:10:33.173Z,37.14
2019-05-15T20:13:04.385Z,37.12
2019-05-15T20:15:37.878Z,37.37
2019-05-15T20:18:08.521Z,37.21
2019-05-15T20:20:40.073Z,37.77
2019-05-15T20:23:11.145Z,38.00
2019-05-15T20:25:42.277Z,38.07
2019-05-15T20:28:13.336Z,38.33
2019-05-15T20:30:45.554Z,38.62
2019-05-15T20:33:18.371Z,38.67
2019-05-15T20:35:49.436Z,38.73
2019-05-15T20:38:20.863Z,38.90
2019-05-15T20:40:51.874Z,39.21
2019-05-15T20:43:22.905Z,39.19
2019-05-15T20:45:53.937Z,39.86
2019-05-15T20:48:25.151Z,40.17
2019-05-15T20:50:58.722Z,40.53
2019-05-15T20:53:29.055Z,40.77
2019-05-15T20:56:00.157Z,40.58
2019-05-15T20:58:31.259Z,40.59
2019-05-15T21:01:02.659Z,40.96
2019-05-15T21:03:33.709Z,41.05
2019-05-15T21:06:05.123Z,41.48
2019-05-15T21:08:37.911Z,41.25
2019-05-15T21:11:12.008Z,41.21
2019-05-15T21:13:41.790Z,40.91
2019-05-15T21:16:12.880Z,41.46
2019-05-15T21:18:44.018Z,41.41
2019-05-15T21:21:15.018Z,41.60
2019-05-15T21:23:46.214Z,41.83
2019-05-15T21:26:18.741Z,42.03
2019-05-15T21:28:50.034Z,42.23
2019-05-15T21:31:22.124Z,42.26
2019-05-15T21:33:53.293Z,43.00
2019-05-15T21:36:24.506Z,42.58
2019-05-15T21:38:55.551Z,42.92
2019-05-15T21:41:27.599Z,42.92
2019-05-15T21:43:59.399Z,42.88
2019-05-15T21:46:30.594Z,43.28
2019-05-15T21:49:01.761Z,43.48
2019-05-15T21:51:32.835Z,43.35
2019-05-15T21:54:04.021Z,43.66
2019-05-15T21:56:35.054Z,43.81
2019-05-15T21:59:08.171Z,44.02
2019-05-15T22:01:40.498Z,43.99
2019-05-15T22:04:11.619Z,44.36
2019-05-15T22:06:42.898Z,44.46
2019-05-15T22:09:18.374Z,44.48
2019-05-15T22:11:49.954Z,44.63
2019-05-15T22:14:21.062Z,44.65
2019-05-15T22:16:52.146Z,44.81
2019-05-15T22:19:23.855Z,45.11
2019-05-15T22:21:54.853Z,45.08
2019-05-15T22:24:28.409Z,45.60
2019-05-15T22:26:58.810Z,45.16
2019-05-15T22:29:29.903Z,45.42
2019-05-15T22:32:00.945Z,45.49
2019-05-15T22:34:32.023Z,45.79
2019-05-15T22:37:03.277Z,45.88
2019-05-15T22:39:34.377Z,46.16
2019-05-15T22:42:08.261Z,46.24
2019-05-15T22:44:39.347Z,46.56
2019-05-15T22:47:10.437Z,46.66
2019-05-15T22:49:41.744Z,46.90
2019-05-15T22:52:12.846Z,46.82
2019-05-15T22:54:44.043Z,46.72
2019-05-15T22:57:15.165Z,46.88
2019-05-15T22:59:46.195Z,46.87
2019-05-15T23:02:17.977Z,47.07
2019-05-15T23:04:51.062Z,47.46
2019-05-15T23:07:22.126Z,47.49
2019-05-15T23:09:53.218Z,47.41
2019-05-15T23:12:24.263Z,47.46
2019-05-15T23:14:55.349Z,47.99
2019-05-15T23:17:27.710Z,47.60
2019-05-15T23:19:59.159Z,47.73
2019-05-15T23:22:30.484Z,48.21
2019-05-15T23:25:01.636Z,48.10
2019-05-15T23:27:32.771Z,48.35
2019-05-15T23:30:04.058Z,48.63
2019-05-15T23:32:35.164Z,48.40
2019-05-15T23:35:06.370Z,48.26
2019-05-15T23:37:39.161Z,48.47
2019-05-15T23:40:10.724Z,48.65
2019-05-15T23:42:41.727Z,48.50
2019-05-15T23:45:13.195Z,48.66
2019-05-15T23:47:44.257Z,48.41
2019-05-15T23:50:15.393Z,48.64
2019-05-15T23:52:48.615Z,48.38
2019-05-15T23:55:19.265Z,48.64
2019-05-15T23:57:50.281Z,48.66
